sensor_id;sensor_type;location;lat;lon;timestamp;temperature;humidity
70708;SHT30;58277;47.316;18.908;2023-07-09T00:00:29;19.64;68.46
70708;SHT30;58277;47.316;18.908;2023-07-09T00:02:52;19.49;69.08
70708;SHT30;58277;47.316;18.908;2023-07-09T00:05:16;19.47;68.83
70708;SHT30;58277;47.316;18.908;2023-07-09T00:07:39;19.55;68.52
70708;SHT30;58277;47.316;18.908;2023-07-09T00:10:03;19.57;68.61
70708;SHT30;58277;47.316;18.908;2023-07-09T00:12:26;19.49;69.11
70708;SHT30;58277;47.316;18.908;2023-07-09T00:14:48;19.41;69.45
70708;SHT30;58277;47.316;18.908;2023-07-09T00:17:27;19.40;69.66
70708;SHT30;58277;47.316;18.908;2023-07-09T00:19:51;19.37;69.63
70708;SHT30;58277;47.316;18.908;2023-07-09T00:22:16;19.33;69.77
70708;SHT30;58277;47.316;18.908;2023-07-09T00:24:39;19.20;70.24
70708;SHT30;58277;47.316;18.908;2023-07-09T00:27:02;19.10;71.00
70708;SHT30;58277;47.316;18.908;2023-07-09T00:29:25;19.04;71.26
70708;SHT30;58277;47.316;18.908;2023-07-09T00:31:47;19.03;71.25
70708;SHT30;58277;47.316;18.908;2023-07-09T00:34:14;19.10;71.04
70708;SHT30;58277;47.316;18.908;2023-07-09T00:36:41;19.20;70.54
70708;SHT30;58277;47.316;18.908;2023-07-09T00:39:15;19.17;70.83
70708;SHT30;58277;47.316;18.908;2023-07-09T00:41:39;19.03;71.18
70708;SHT30;58277;47.316;18.908;2023-07-09T00:49:09;18.88;71.79
70708;SHT30;58277;47.316;18.908;2023-07-09T00:51:41;18.89;71.41
70708;SHT30;58277;47.316;18.908;2023-07-09T00:54:12;18.93;71.27
70708;SHT30;58277;47.316;18.908;2023-07-09T00:56:41;18.91;71.45
70708;SHT30;58277;47.316;18.908;2023-07-09T00:59:08;18.95;71.51
70708;SHT30;58277;47.316;18.908;2023-07-09T01:01:33;18.89;71.75
70708;SHT30;58277;47.316;18.908;2023-07-09T01:03:58;18.85;71.97
70708;SHT30;58277;47.316;18.908;2023-07-09T01:06:32;18.84;72.32
70708;SHT30;58277;47.316;18.908;2023-07-09T01:08:58;18.88;72.09
70708;SHT30;58277;47.316;18.908;2023-07-09T01:11:27;18.75;72.48
70708;SHT30;58277;47.316;18.908;2023-07-09T01:13:54;18.71;72.99
70708;SHT30;58277;47.316;18.908;2023-07-09T01:16:19;18.73;72.86
70708;SHT30;58277;47.316;18.908;2023-07-09T01:18:43;18.85;72.66
70708;SHT30;58277;47.316;18.908;2023-07-09T01:21:10;18.91;72.89
70708;SHT30;58277;47.316;18.908;2023-07-09T01:23:38;18.91;72.45
70708;SHT30;58277;47.316;18.908;2023-07-09T01:26:01;18.91;72.44
70708;SHT30;58277;47.316;18.908;2023-07-09T01:28:24;18.93;72.60
70708;SHT30;58277;47.316;18.908;2023-07-09T01:30:47;18.88;72.57
70708;SHT30;58277;47.316;18.908;2023-07-09T01:33:16;18.79;72.72
70708;SHT30;58277;47.316;18.908;2023-07-09T01:35:40;18.79;72.41
70708;SHT30;58277;47.316;18.908;2023-07-09T01:38:05;18.81;72.29
70708;SHT30;58277;47.316;18.908;2023-07-09T01:40:30;18.68;72.08
70708;SHT30;58277;47.316;18.908;2023-07-09T01:43:18;18.54;72.48
70708;SHT30;58277;47.316;18.908;2023-07-09T01:46:01;18.45;72.48
70708;SHT30;58277;47.316;18.908;2023-07-09T01:48:26;18.31;73.12
70708;SHT30;58277;47.316;18.908;2023-07-09T01:50:48;18.27;73.57
70708;SHT30;58277;47.316;18.908;2023-07-09T01:53:13;18.26;73.83
70708;SHT30;58277;47.316;18.908;2023-07-09T01:55:37;18.14;74.07
70708;SHT30;58277;47.316;18.908;2023-07-09T01:58:00;18.07;74.62
70708;SHT30;58277;47.316;18.908;2023-07-09T02:00:22;18.03;75.15
70708;SHT30;58277;47.316;18.908;2023-07-09T02:02:46;17.87;75.80
70708;SHT30;58277;47.316;18.908;2023-07-09T02:05:11;17.86;76.00
70708;SHT30;58277;47.316;18.908;2023-07-09T02:07:35;17.82;75.98
70708;SHT30;58277;47.316;18.908;2023-07-09T02:09:58;17.87;75.61
70708;SHT30;58277;47.316;18.908;2023-07-09T02:12:21;17.86;75.47
70708;SHT30;58277;47.316;18.908;2023-07-09T02:14:45;17.80;75.60
70708;SHT30;58277;47.316;18.908;2023-07-09T02:17:09;17.89;74.99
70708;SHT30;58277;47.316;18.908;2023-07-09T02:19:32;17.96;74.93
70708;SHT30;58277;47.316;18.908;2023-07-09T02:21:56;17.99;75.72
70708;SHT30;58277;47.316;18.908;2023-07-09T02:24:19;17.82;75.76
70708;SHT30;58277;47.316;18.908;2023-07-09T02:26:42;17.68;75.62
70708;SHT30;58277;47.316;18.908;2023-07-09T02:29:05;17.52;76.16
70708;SHT30;58277;47.316;18.908;2023-07-09T02:31:27;17.38;77.02
70708;SHT30;58277;47.316;18.908;2023-07-09T02:33:52;17.32;76.99
70708;SHT30;58277;47.316;18.908;2023-07-09T02:36:15;17.23;77.98
70708;SHT30;58277;47.316;18.908;2023-07-09T02:38:38;17.27;77.71
70708;SHT30;58277;47.316;18.908;2023-07-09T02:41:00;17.11;78.08
70708;SHT30;58277;47.316;18.908;2023-07-09T02:43:24;17.04;78.05
70708;SHT30;58277;47.316;18.908;2023-07-09T02:45:47;17.07;78.14
70708;SHT30;58277;47.316;18.908;2023-07-09T02:48:10;16.88;78.30
70708;SHT30;58277;47.316;18.908;2023-07-09T02:50:34;16.84;78.57
70708;SHT30;58277;47.316;18.908;2023-07-09T02:52:57;16.87;78.63
70708;SHT30;58277;47.316;18.908;2023-07-09T02:55:20;17.08;77.99
70708;SHT30;58277;47.316;18.908;2023-07-09T02:57:43;17.14;77.62
70708;SHT30;58277;47.316;18.908;2023-07-09T03:00:06;17.11;77.82
70708;SHT30;58277;47.316;18.908;2023-07-09T03:02:30;17.21;77.58
70708;SHT30;58277;47.316;18.908;2023-07-09T03:04:53;17.21;77.46
70708;SHT30;58277;47.316;18.908;2023-07-09T03:07:16;17.24;77.36
70708;SHT30;58277;47.316;18.908;2023-07-09T03:09:38;17.35;77.34
70708;SHT30;58277;47.316;18.908;2023-07-09T03:12:01;17.48;76.78
70708;SHT30;58277;47.316;18.908;2023-07-09T03:14:24;17.53;76.52
70708;SHT30;58277;47.316;18.908;2023-07-09T03:16:47;17.65;76.11
70708;SHT30;58277;47.316;18.908;2023-07-09T03:19:10;17.69;75.84
70708;SHT30;58277;47.316;18.908;2023-07-09T03:21:33;17.78;75.59
70708;SHT30;58277;47.316;18.908;2023-07-09T03:23:56;17.76;75.63
70708;SHT30;58277;47.316;18.908;2023-07-09T03:26:20;17.86;75.29
70708;SHT30;58277;47.316;18.908;2023-07-09T03:28:42;17.91;75.25
70708;SHT30;58277;47.316;18.908;2023-07-09T03:31:05;18.00;75.04
70708;SHT30;58277;47.316;18.908;2023-07-09T03:33:28;18.18;74.51
70708;SHT30;58277;47.316;18.908;2023-07-09T03:35:52;18.18;74.78
70708;SHT30;58277;47.316;18.908;2023-07-09T03:38:14;18.16;75.00
70708;SHT30;58277;47.316;18.908;2023-07-09T03:40:38;18.18;74.98
70708;SHT30;58277;47.316;18.908;2023-07-09T03:43:00;18.30;74.74
70708;SHT30;58277;47.316;18.908;2023-07-09T03:45:23;18.48;74.03
70708;SHT30;58277;47.316;18.908;2023-07-09T03:47:46;18.57;73.50
70708;SHT30;58277;47.316;18.908;2023-07-09T03:50:10;18.57;73.30
70708;SHT30;58277;47.316;18.908;2023-07-09T03:52:34;18.59;72.78
70708;SHT30;58277;47.316;18.908;2023-07-09T03:54:57;18.77;72.37
70708;SHT30;58277;47.316;18.908;2023-07-09T03:57:19;19.03;71.64
70708;SHT30;58277;47.316;18.908;2023-07-09T03:59:42;19.27;70.80
70708;SHT30;58277;47.316;18.908;2023-07-09T04:02:05;19.40;70.37
70708;SHT30;58277;47.316;18.908;2023-07-09T04:04:28;19.46;70.08
70708;SHT30;58277;47.316;18.908;2023-07-09T04:06:51;19.60;69.54
70708;SHT30;58277;47.316;18.908;2023-07-09T04:09:14;19.70;69.22
70708;SHT30;58277;47.316;18.908;2023-07-09T04:11:36;19.86;69.15
70708;SHT30;58277;47.316;18.908;2023-07-09T04:13:59;19.90;68.91
70708;SHT30;58277;47.316;18.908;2023-07-09T04:16:22;19.93;68.55
70708;SHT30;58277;47.316;18.908;2023-07-09T04:18:44;19.92;69.14
70708;SHT30;58277;47.316;18.908;2023-07-09T04:21:08;19.90;69.06
70708;SHT30;58277;47.316;18.908;2023-07-09T04:23:30;19.86;69.50
70708;SHT30;58277;47.316;18.908;2023-07-09T04:25:53;19.81;69.64
70708;SHT30;58277;47.316;18.908;2023-07-09T04:28:16;19.68;69.84
70708;SHT30;58277;47.316;18.908;2023-07-09T04:30:38;19.57;70.55
70708;SHT30;58277;47.316;18.908;2023-07-09T04:33:02;19.68;70.45
70708;SHT30;58277;47.316;18.908;2023-07-09T04:35:25;19.61;70.60
70708;SHT30;58277;47.316;18.908;2023-07-09T04:37:48;19.68;70.55
70708;SHT30;58277;47.316;18.908;2023-07-09T04:40:11;19.98;69.76
70708;SHT30;58277;47.316;18.908;2023-07-09T04:42:34;20.19;69.38
70708;SHT30;58277;47.316;18.908;2023-07-09T04:44:56;20.40;68.71
70708;SHT30;58277;47.316;18.908;2023-07-09T04:47:19;20.68;67.99
70708;SHT30;58277;47.316;18.908;2023-07-09T04:49:42;21.03;66.18
70708;SHT30;58277;47.316;18.908;2023-07-09T04:52:05;21.15;65.96
70708;SHT30;58277;47.316;18.908;2023-07-09T04:54:28;21.26;66.27
70708;SHT30;58277;47.316;18.908;2023-07-09T04:56:51;21.38;66.14
70708;SHT30;58277;47.316;18.908;2023-07-09T04:59:14;21.54;65.69
70708;SHT30;58277;47.316;18.908;2023-07-09T05:01:37;21.66;65.97
70708;SHT30;58277;47.316;18.908;2023-07-09T05:03:59;21.77;65.62
70708;SHT30;58277;47.316;18.908;2023-07-09T05:06:22;21.91;65.39
70708;SHT30;58277;47.316;18.908;2023-07-09T05:08:45;22.19;64.80
70708;SHT30;58277;47.316;18.908;2023-07-09T05:11:08;22.45;62.74
70708;SHT30;58277;47.316;18.908;2023-07-09T05:13:31;22.86;61.03
70708;SHT30;58277;47.316;18.908;2023-07-09T05:15:54;23.01;60.56
70708;SHT30;58277;47.316;18.908;2023-07-09T05:18:17;23.39;60.09
70708;SHT30;58277;47.316;18.908;2023-07-09T05:20:42;23.56;59.23
70708;SHT30;58277;47.316;18.908;2023-07-09T05:23:04;23.72;58.76
70708;SHT30;58277;47.316;18.908;2023-07-09T05:25:27;23.68;58.56
70708;SHT30;58277;47.316;18.908;2023-07-09T05:27:50;23.70;58.37
70708;SHT30;58277;47.316;18.908;2023-07-09T05:30:14;23.85;58.19
70708;SHT30;58277;47.316;18.908;2023-07-09T05:32:37;23.97;58.42
70708;SHT30;58277;47.316;18.908;2023-07-09T05:35:00;24.14;57.15
70708;SHT30;58277;47.316;18.908;2023-07-09T05:37:23;24.20;56.99
70708;SHT30;58277;47.316;18.908;2023-07-09T05:39:46;24.28;56.56
70708;SHT30;58277;47.316;18.908;2023-07-09T05:42:09;24.40;56.50
70708;SHT30;58277;47.316;18.908;2023-07-09T05:44:32;24.44;56.79
70708;SHT30;58277;47.316;18.908;2023-07-09T05:46:55;24.55;56.87
70708;SHT30;58277;47.316;18.908;2023-07-09T05:49:18;24.71;56.50
70708;SHT30;58277;47.316;18.908;2023-07-09T05:51:41;24.86;55.48
70708;SHT30;58277;47.316;18.908;2023-07-09T05:54:04;24.99;55.18
70708;SHT30;58277;47.316;18.908;2023-07-09T05:56:27;25.19;54.69
70708;SHT30;58277;47.316;18.908;2023-07-09T05:58:51;25.40;54.57
70708;SHT30;58277;47.316;18.908;2023-07-09T06:01:15;25.46;54.02
70708;SHT30;58277;47.316;18.908;2023-07-09T06:03:38;25.63;54.34
70708;SHT30;58277;47.316;18.908;2023-07-09T06:06:01;25.60;53.19
70708;SHT30;58277;47.316;18.908;2023-07-09T06:08:24;25.68;53.07
70708;SHT30;58277;47.316;18.908;2023-07-09T06:10:56;25.88;52.66
70708;SHT30;58277;47.316;18.908;2023-07-09T06:13:20;26.11;51.25
70708;SHT30;58277;47.316;18.908;2023-07-09T06:15:43;26.25;50.40
70708;SHT30;58277;47.316;18.908;2023-07-09T06:18:06;26.46;49.93
70708;SHT30;58277;47.316;18.908;2023-07-09T06:20:29;26.65;47.81
70708;SHT30;58277;47.316;18.908;2023-07-09T06:22:51;27.14;48.21
70708;SHT30;58277;47.316;18.908;2023-07-09T06:25:14;27.38;46.97
70708;SHT30;58277;47.316;18.908;2023-07-09T06:27:37;27.52;46.92
70708;SHT30;58277;47.316;18.908;2023-07-09T06:29:59;27.79;45.32
70708;SHT30;58277;47.316;18.908;2023-07-09T06:32:22;27.93;46.02
70708;SHT30;58277;47.316;18.908;2023-07-09T06:34:45;27.77;46.77
70708;SHT30;58277;47.316;18.908;2023-07-09T06:37:08;27.80;46.83
70708;SHT30;58277;47.316;18.908;2023-07-09T06:39:31;27.83;46.67
70708;SHT30;58277;47.316;18.908;2023-07-09T06:41:53;27.73;46.14
70708;SHT30;58277;47.316;18.908;2023-07-09T06:44:42;27.80;45.31
70708;SHT30;58277;47.316;18.908;2023-07-09T06:47:05;27.87;45.14
70708;SHT30;58277;47.316;18.908;2023-07-09T06:49:28;28.02;44.67
70708;SHT30;58277;47.316;18.908;2023-07-09T06:51:50;28.00;45.31
70708;SHT30;58277;47.316;18.908;2023-07-09T06:54:13;28.19;43.27
70708;SHT30;58277;47.316;18.908;2023-07-09T06:56:38;28.28;43.42
70708;SHT30;58277;47.316;18.908;2023-07-09T06:59:01;28.46;43.13
70708;SHT30;58277;47.316;18.908;2023-07-09T07:01:23;28.55;41.30
70708;SHT30;58277;47.316;18.908;2023-07-09T07:03:46;28.69;41.07
70708;SHT30;58277;47.316;18.908;2023-07-09T07:06:09;28.63;41.49
70708;SHT30;58277;47.316;18.908;2023-07-09T07:08:32;28.67;38.59
70708;SHT30;58277;47.316;18.908;2023-07-09T07:10:59;28.75;38.41
70708;SHT30;58277;47.316;18.908;2023-07-09T07:13:25;28.69;39.61
70708;SHT30;58277;47.316;18.908;2023-07-09T07:15:51;28.75;39.93
70708;SHT30;58277;47.316;18.908;2023-07-09T07:18:14;28.76;40.62
70708;SHT30;58277;47.316;18.908;2023-07-09T07:20:37;28.83;41.21
70708;SHT30;58277;47.316;18.908;2023-07-09T07:22:59;28.87;41.29
70708;SHT30;58277;47.316;18.908;2023-07-09T07:25:22;29.25;39.24
70708;SHT30;58277;47.316;18.908;2023-07-09T07:27:45;29.47;39.31
70708;SHT30;58277;47.316;18.908;2023-07-09T07:30:08;29.98;37.73
70708;SHT30;58277;47.316;18.908;2023-07-09T07:32:31;30.74;36.79
70708;SHT30;58277;47.316;18.908;2023-07-09T07:34:54;30.85;37.13
70708;SHT30;58277;47.316;18.908;2023-07-09T07:37:18;30.93;36.29
70708;SHT30;58277;47.316;18.908;2023-07-09T07:39:44;31.03;36.10
70708;SHT30;58277;47.316;18.908;2023-07-09T07:42:06;31.20;35.64
70708;SHT30;58277;47.316;18.908;2023-07-09T07:44:29;30.84;37.15
70708;SHT30;58277;47.316;18.908;2023-07-09T07:46:52;30.76;36.95
70708;SHT30;58277;47.316;18.908;2023-07-09T07:49:15;30.63;36.51
70708;SHT30;58277;47.316;18.908;2023-07-09T07:51:38;30.51;36.25
70708;SHT30;58277;47.316;18.908;2023-07-09T07:54:01;30.47;36.22
70708;SHT30;58277;47.316;18.908;2023-07-09T07:56:24;30.38;36.18
70708;SHT30;58277;47.316;18.908;2023-07-09T07:58:48;30.38;36.04
70708;SHT30;58277;47.316;18.908;2023-07-09T08:01:10;30.36;35.87
70708;SHT30;58277;47.316;18.908;2023-07-09T08:03:33;30.31;36.03
70708;SHT30;58277;47.316;18.908;2023-07-09T08:05:56;30.24;35.33
70708;SHT30;58277;47.316;18.908;2023-07-09T08:08:23;30.18;34.46
70708;SHT30;58277;47.316;18.908;2023-07-09T08:10:45;30.26;34.14
70708;SHT30;58277;47.316;18.908;2023-07-09T08:13:08;30.12;34.22
70708;SHT30;58277;47.316;18.908;2023-07-09T08:15:31;30.21;33.88
70708;SHT30;58277;47.316;18.908;2023-07-09T08:17:54;30.20;34.53
70708;SHT30;58277;47.316;18.908;2023-07-09T08:20:17;30.13;34.57
70708;SHT30;58277;47.316;18.908;2023-07-09T08:22:40;30.21;34.00
70708;SHT30;58277;47.316;18.908;2023-07-09T08:25:03;30.30;34.19
70708;SHT30;58277;47.316;18.908;2023-07-09T08:27:26;30.17;34.99
70708;SHT30;58277;47.316;18.908;2023-07-09T08:29:48;30.30;34.36
70708;SHT30;58277;47.316;18.908;2023-07-09T08:32:11;30.31;34.11
70708;SHT30;58277;47.316;18.908;2023-07-09T08:34:34;30.41;33.01
70708;SHT30;58277;47.316;18.908;2023-07-09T08:36:57;30.54;33.89
70708;SHT30;58277;47.316;18.908;2023-07-09T08:39:20;30.67;34.07
70708;SHT30;58277;47.316;18.908;2023-07-09T08:49:54;30.84;32.60
70708;SHT30;58277;47.316;18.908;2023-07-09T08:52:28;30.86;32.83
70708;SHT30;58277;47.316;18.908;2023-07-09T08:54:55;30.92;32.26
70708;SHT30;58277;47.316;18.908;2023-07-09T08:57:25;30.95;32.43
70708;SHT30;58277;47.316;18.908;2023-07-09T08:59:56;30.89;32.35
70708;SHT30;58277;47.316;18.908;2023-07-09T09:02:35;30.82;32.45
70708;SHT30;58277;47.316;18.908;2023-07-09T09:04:59;30.91;31.31
70708;SHT30;58277;47.316;18.908;2023-07-09T09:09:57;30.89;34.67
70708;SHT30;58277;47.316;18.908;2023-07-09T09:12:28;31.02;33.43
70708;SHT30;58277;47.316;18.908;2023-07-09T09:15:00;31.00;33.67
70708;SHT30;58277;47.316;18.908;2023-07-09T09:17:25;31.25;33.28
70708;SHT30;58277;47.316;18.908;2023-07-09T09:20:08;31.33;32.48
70708;SHT30;58277;47.316;18.908;2023-07-09T09:25:27;31.49;33.15
70708;SHT30;58277;47.316;18.908;2023-07-09T09:27:50;31.41;33.39
70708;SHT30;58277;47.316;18.908;2023-07-09T09:30:15;31.50;33.91
70708;SHT30;58277;47.316;18.908;2023-07-09T09:33:00;31.43;32.67
70708;SHT30;58277;47.316;18.908;2023-07-09T09:35:43;31.53;31.41
70708;SHT30;58277;47.316;18.908;2023-07-09T09:38:17;31.57;32.74
70708;SHT30;58277;47.316;18.908;2023-07-09T09:40:40;31.50;32.85
70708;SHT30;58277;47.316;18.908;2023-07-09T09:43:12;31.43;33.22
70708;SHT30;58277;47.316;18.908;2023-07-09T09:45:38;31.74;32.71
70708;SHT30;58277;47.316;18.908;2023-07-09T09:48:17;31.73;33.00
70708;SHT30;58277;47.316;18.908;2023-07-09T09:50:42;31.84;32.84
70708;SHT30;58277;47.316;18.908;2023-07-09T09:53:08;31.91;32.79
70708;SHT30;58277;47.316;18.908;2023-07-09T09:55:31;31.95;31.63
70708;SHT30;58277;47.316;18.908;2023-07-09T09:57:55;31.99;31.11
70708;SHT30;58277;47.316;18.908;2023-07-09T10:00:23;32.05;32.39
70708;SHT30;58277;47.316;18.908;2023-07-09T10:02:47;31.70;32.22
70708;SHT30;58277;47.316;18.908;2023-07-09T10:05:16;31.41;31.01
70708;SHT30;58277;47.316;18.908;2023-07-09T10:08:06;31.30;31.24
70708;SHT30;58277;47.316;18.908;2023-07-09T10:10:32;31.13;31.02
70708;SHT30;58277;47.316;18.908;2023-07-09T10:13:29;31.49;32.21
70708;SHT30;58277;47.316;18.908;2023-07-09T10:16:09;31.81;33.40
70708;SHT30;58277;47.316;18.908;2023-07-09T10:21:27;32.37;31.68
70708;SHT30;58277;47.316;18.908;2023-07-09T10:24:33;32.55;31.27
70708;SHT30;58277;47.316;18.908;2023-07-09T10:27:06;32.60;30.79
70708;SHT30;58277;47.316;18.908;2023-07-09T10:32:33;32.94;31.67
70708;SHT30;58277;47.316;18.908;2023-07-09T10:35:22;33.00;30.99
70708;SHT30;58277;47.316;18.908;2023-07-09T10:40:27;33.18;30.39
70708;SHT30;58277;47.316;18.908;2023-07-09T10:42:54;33.29;29.75
70708;SHT30;58277;47.316;18.908;2023-07-09T10:45:26;33.61;29.70
70708;SHT30;58277;47.316;18.908;2023-07-09T10:47:57;32.74;29.67
70708;SHT30;58277;47.316;18.908;2023-07-09T10:50:30;32.83;30.70
70708;SHT30;58277;47.316;18.908;2023-07-09T10:52:54;32.55;30.94
70708;SHT30;58277;47.316;18.908;2023-07-09T10:55:33;31.87;31.02
70708;SHT30;58277;47.316;18.908;2023-07-09T10:58:47;32.04;30.74
70708;SHT30;58277;47.316;18.908;2023-07-09T11:00:48;32.18;32.13
70708;SHT30;58277;47.316;18.908;2023-07-09T11:03:27;32.02;32.93
70708;SHT30;58277;47.316;18.908;2023-07-09T11:05:51;31.76;33.86
70708;SHT30;58277;47.316;18.908;2023-07-09T11:08:21;31.47;31.42
70708;SHT30;58277;47.316;18.908;2023-07-09T11:10:54;31.71;31.88
70708;SHT30;58277;47.316;18.908;2023-07-09T11:13:40;32.24;30.35
70708;SHT30;58277;47.316;18.908;2023-07-09T11:16:28;32.37;30.98
70708;SHT30;58277;47.316;18.908;2023-07-09T11:19:02;32.40;32.26
70708;SHT30;58277;47.316;18.908;2023-07-09T11:21:26;32.33;32.56
70708;SHT30;58277;47.316;18.908;2023-07-09T11:23:56;32.29;30.83
70708;SHT30;58277;47.316;18.908;2023-07-09T11:28:51;32.04;30.55
70708;SHT30;58277;47.316;18.908;2023-07-09T11:31:21;32.01;30.88
70708;SHT30;58277;47.316;18.908;2023-07-09T11:33:49;32.40;32.11
70708;SHT30;58277;47.316;18.908;2023-07-09T11:36:27;32.64;32.02
70708;SHT30;58277;47.316;18.908;2023-07-09T11:38:50;32.83;32.14
70708;SHT30;58277;47.316;18.908;2023-07-09T11:41:43;33.04;31.28
70708;SHT30;58277;47.316;18.908;2023-07-09T11:46:31;33.29;30.14
70708;SHT30;58277;47.316;18.908;2023-07-09T11:48:57;33.45;31.32
70708;SHT30;58277;47.316;18.908;2023-07-09T11:51:34;33.27;29.00
70708;SHT30;58277;47.316;18.908;2023-07-09T11:54:00;33.68;28.65
70708;SHT30;58277;47.316;18.908;2023-07-09T11:56:24;33.92;28.80
70708;SHT30;58277;47.316;18.908;2023-07-09T11:58:54;34.04;28.10
70708;SHT30;58277;47.316;18.908;2023-07-09T12:01:20;34.13;29.58
70708;SHT30;58277;47.316;18.908;2023-07-09T12:03:45;34.20;28.66
70708;SHT30;58277;47.316;18.908;2023-07-09T12:06:29;33.85;26.67
70708;SHT30;58277;47.316;18.908;2023-07-09T12:08:53;33.76;28.33
70708;SHT30;58277;47.316;18.908;2023-07-09T12:11:35;33.69;29.54
70708;SHT30;58277;47.316;18.908;2023-07-09T12:14:08;33.41;29.21
70708;SHT30;58277;47.316;18.908;2023-07-09T12:16:36;33.34;30.34
70708;SHT30;58277;47.316;18.908;2023-07-09T12:18:59;33.11;31.09
70708;SHT30;58277;47.316;18.908;2023-07-09T12:21:23;33.25;30.34
70708;SHT30;58277;47.316;18.908;2023-07-09T12:24:41;32.83;29.56
70708;SHT30;58277;47.316;18.908;2023-07-09T12:27:25;32.59;28.51
70708;SHT30;58277;47.316;18.908;2023-07-09T12:29:51;32.92;29.65
70708;SHT30;58277;47.316;18.908;2023-07-09T12:32:16;33.01;29.63
70708;SHT30;58277;47.316;18.908;2023-07-09T12:34:39;33.25;29.15
70708;SHT30;58277;47.316;18.908;2023-07-09T12:37:03;33.25;30.12
70708;SHT30;58277;47.316;18.908;2023-07-09T12:39:28;32.98;28.78
70708;SHT30;58277;47.316;18.908;2023-07-09T12:41:55;33.24;29.15
70708;SHT30;58277;47.316;18.908;2023-07-09T12:44:20;33.18;29.66
70708;SHT30;58277;47.316;18.908;2023-07-09T12:46:43;33.15;29.60
70708;SHT30;58277;47.316;18.908;2023-07-09T12:49:07;32.97;28.86
70708;SHT30;58277;47.316;18.908;2023-07-09T12:51:29;32.87;29.34
70708;SHT30;58277;47.316;18.908;2023-07-09T12:54:13;32.53;29.93
70708;SHT30;58277;47.316;18.908;2023-07-09T12:56:37;32.35;30.14
70708;SHT30;58277;47.316;18.908;2023-07-09T12:58:59;32.48;29.23
70708;SHT30;58277;47.316;18.908;2023-07-09T13:01:24;32.25;30.97
70708;SHT30;58277;47.316;18.908;2023-07-09T13:03:55;31.89;31.36
70708;SHT30;58277;47.316;18.908;2023-07-09T13:06:28;31.66;31.08
70708;SHT30;58277;47.316;18.908;2023-07-09T13:08:58;31.87;31.22
70708;SHT30;58277;47.316;18.908;2023-07-09T13:11:21;32.04;31.97
70708;SHT30;58277;47.316;18.908;2023-07-09T13:13:58;32.26;31.15
70708;SHT30;58277;47.316;18.908;2023-07-09T13:16:21;32.48;30.90
70708;SHT30;58277;47.316;18.908;2023-07-09T13:18:44;32.42;29.63
70708;SHT30;58277;47.316;18.908;2023-07-09T13:21:16;32.51;30.75
70708;SHT30;58277;47.316;18.908;2023-07-09T13:23:39;32.70;31.03
70708;SHT30;58277;47.316;18.908;2023-07-09T13:26:02;32.62;30.74
70708;SHT30;58277;47.316;18.908;2023-07-09T13:28:27;32.43;31.22
70708;SHT30;58277;47.316;18.908;2023-07-09T13:30:51;32.46;30.32
70708;SHT30;58277;47.316;18.908;2023-07-09T13:33:16;32.56;29.87
70708;SHT30;58277;47.316;18.908;2023-07-09T13:35:40;32.57;32.22
70708;SHT30;58277;47.316;18.908;2023-07-09T13:38:11;32.86;30.63
70708;SHT30;58277;47.316;18.908;2023-07-09T13:40:34;33.11;29.99
70708;SHT30;58277;47.316;18.908;2023-07-09T13:42:57;33.35;29.16
70708;SHT30;58277;47.316;18.908;2023-07-09T13:45:23;33.41;28.90
70708;SHT30;58277;47.316;18.908;2023-07-09T13:47:46;33.45;29.20
70708;SHT30;58277;47.316;18.908;2023-07-09T13:50:09;33.39;28.72
70708;SHT30;58277;47.316;18.908;2023-07-09T13:52:33;33.27;29.34
70708;SHT30;58277;47.316;18.908;2023-07-09T13:54:56;33.29;29.04
70708;SHT30;58277;47.316;18.908;2023-07-09T13:57:21;33.31;29.36
70708;SHT30;58277;47.316;18.908;2023-07-09T13:59:45;33.25;30.07
70708;SHT30;58277;47.316;18.908;2023-07-09T14:02:29;33.46;29.00
70708;SHT30;58277;47.316;18.908;2023-07-09T14:04:54;33.44;28.60
70708;SHT30;58277;47.316;18.908;2023-07-09T14:07:38;33.65;27.97
70708;SHT30;58277;47.316;18.908;2023-07-09T14:10:03;33.65;28.35
70708;SHT30;58277;47.316;18.908;2023-07-09T14:12:27;33.49;29.05
70708;SHT30;58277;47.316;18.908;2023-07-09T14:14:51;33.65;28.63
70708;SHT30;58277;47.316;18.908;2023-07-09T14:17:14;33.69;28.31
70708;SHT30;58277;47.316;18.908;2023-07-09T14:19:58;33.85;28.45
70708;SHT30;58277;47.316;18.908;2023-07-09T14:24:48;33.41;28.81
70708;SHT30;58277;47.316;18.908;2023-07-09T14:27:10;33.56;29.62
70708;SHT30;58277;47.316;18.908;2023-07-09T14:29:33;33.41;28.78
70708;SHT30;58277;47.316;18.908;2023-07-09T14:31:56;33.10;27.73
70708;SHT30;58277;47.316;18.908;2023-07-09T14:34:26;33.41;29.35
70708;SHT30;58277;47.316;18.908;2023-07-09T14:36:52;33.63;27.68
70708;SHT30;58277;47.316;18.908;2023-07-09T14:39:15;33.63;28.09
70708;SHT30;58277;47.316;18.908;2023-07-09T14:41:38;33.59;27.87
70708;SHT30;58277;47.316;18.908;2023-07-09T14:44:01;33.75;28.36
70708;SHT30;58277;47.316;18.908;2023-07-09T14:46:24;33.68;28.52
70708;SHT30;58277;47.316;18.908;2023-07-09T14:48:47;33.82;27.63
70708;SHT30;58277;47.316;18.908;2023-07-09T14:51:14;33.73;28.01
70708;SHT30;58277;47.316;18.908;2023-07-09T14:53:40;33.72;28.80
70708;SHT30;58277;47.316;18.908;2023-07-09T14:56:03;33.52;28.79
70708;SHT30;58277;47.316;18.908;2023-07-09T14:58:26;33.48;28.31
70708;SHT30;58277;47.316;18.908;2023-07-09T15:00:50;33.56;27.84
70708;SHT30;58277;47.316;18.908;2023-07-09T15:03:23;33.59;27.49
70708;SHT30;58277;47.316;18.908;2023-07-09T15:05:46;33.80;27.95
70708;SHT30;58277;47.316;18.908;2023-07-09T15:08:12;33.58;28.19
70708;SHT30;58277;47.316;18.908;2023-07-09T15:10:36;33.44;28.32
70708;SHT30;58277;47.316;18.908;2023-07-09T15:12:59;33.41;28.30
70708;SHT30;58277;47.316;18.908;2023-07-09T15:15:26;33.22;28.40
70708;SHT30;58277;47.316;18.908;2023-07-09T15:17:50;33.04;28.35
70708;SHT30;58277;47.316;18.908;2023-07-09T15:20:22;33.07;28.89
70708;SHT30;58277;47.316;18.908;2023-07-09T15:22:45;32.98;28.49
70708;SHT30;58277;47.316;18.908;2023-07-09T15:25:13;33.00;28.77
70708;SHT30;58277;47.316;18.908;2023-07-09T15:27:36;32.77;29.32
70708;SHT30;58277;47.316;18.908;2023-07-09T15:30:03;32.76;29.49
70708;SHT30;58277;47.316;18.908;2023-07-09T15:32:27;32.49;29.77
70708;SHT30;58277;47.316;18.908;2023-07-09T15:34:50;32.44;29.63
70708;SHT30;58277;47.316;18.908;2023-07-09T15:37:15;32.43;29.72
70708;SHT30;58277;47.316;18.908;2023-07-09T15:39:38;32.26;30.13
70708;SHT30;58277;47.316;18.908;2023-07-09T15:42:04;32.51;30.66